Time;durP1;ratioP1;P1;durP2;ratioP2;P2;SDS_P1;SDS_P2;PMS_P1;PMS_P2;Temp;Humidity;BMP_temperature;BMP_pressure;BME280_temperature;BME280_humidity;BME280_pressure;Samples;Min_cycle;Max_cycle;Signal;HPM_P1;HPM_P2
2021/12/15 00:00:58;;;;;;;;;42.75;35.75;;;;;11.05;69.76;102857.28;5027360;28;45237;-59
2021/12/15 00:03:24;;;;;;;;;41.50;32.50;;;;;11.02;69.62;102854.72;5030457;28;45340;-58
2021/12/15 00:05:51;;;;;;;;;45.50;38.25;;;;;11.02;69.59;102857.38;5031454;28;45343;-58
2021/12/15 00:08:17;;;;;;;;;46.75;36.50;;;;;11.01;69.69;102845.09;5032972;28;45937;-55
2021/12/15 00:10:44;;;;;;;;;38.75;31.25;;;;;11.05;69.81;102848.50;5026555;28;45237;-58
2021/12/15 00:13:13;;;;;;;;;50.25;36.25;;;;;11.05;69.72;102845.84;5028647;28;45448;-59
2021/12/15 00:15:39;;;;;;;;;43.00;36.25;;;;;11.02;69.73;102841.53;5028642;28;45872;-59
2021/12/15 00:18:05;;;;;;;;;50.50;37.25;;;;;11.01;69.76;102838.94;5031929;28;45481;-59
2021/12/15 00:20:31;;;;;;;;;43.25;37.00;;;;;11.03;69.40;102842.41;5033718;28;45396;-59
2021/12/15 00:22:58;;;;;;;;;44.25;36.00;;;;;11.04;69.87;102852.03;5030881;28;45323;-59
2021/12/15 00:25:35;;;;;;;;;46.50;37.75;;;;;11.06;69.61;102847.59;5031079;28;45534;-59
2021/12/15 00:28:01;;;;;;;;;45.75;33.75;;;;;11.06;69.70;102850.22;5033131;28;46141;-59
2021/12/15 00:30:28;;;;;;;;;47.75;38.75;;;;;11.09;69.56;102836.97;5033940;28;45739;-59
2021/12/15 00:32:54;;;;;;;;;49.25;37.00;;;;;11.09;70.06;102842.25;5033163;28;45719;-59
2021/12/15 00:35:20;;;;;;;;;43.50;37.75;;;;;11.08;69.97;102836.09;5030166;28;45488;-59
2021/12/15 00:37:46;;;;;;;;;52.75;39.25;;;;;11.09;69.80;102829.91;5033369;28;45400;-59
2021/12/15 00:40:14;;;;;;;;;44.50;34.50;;;;;11.12;69.51;102844.78;5036994;28;45260;-59
2021/12/15 00:42:40;;;;;;;;;43.75;37.50;;;;;11.10;69.65;102846.59;5038007;28;45414;-58
2021/12/15 00:45:07;;;;;;;;;45.00;35.75;;;;;11.11;69.72;102838.66;5033347;28;45430;-58
2021/12/15 00:47:32;;;;;;;;;49.75;36.75;;;;;11.13;69.37;102844.72;5031852;28;45446;-58
2021/12/15 00:50:06;;;;;;;;;38.75;34.50;;;;;11.14;69.52;102833.31;5034844;28;45406;-58
2021/12/15 00:52:33;;;;;;;;;52.25;37.50;;;;;11.17;69.31;102840.25;5031086;28;45329;-58
2021/12/15 00:54:59;;;;;;;;;42.00;33.50;;;;;11.18;69.50;102840.22;5025255;28;45209;-57
2021/12/15 00:57:25;;;;;;;;;44.00;33.75;;;;;11.21;69.45;102836.59;5033508;28;45538;-59
2021/12/15 00:59:50;;;;;;;;;42.75;35.25;;;;;11.21;69.41;102846.28;5031688;28;45462;-58
2021/12/15 01:02:16;;;;;;;;;44.75;37.50;;;;;11.19;69.48;102841.06;5031645;28;45449;-58
2021/12/15 01:04:41;;;;;;;;;50.00;39.00;;;;;11.19;69.58;102838.44;5033237;28;45360;-57
2021/12/15 01:07:09;;;;;;;;;40.00;33.75;;;;;11.19;69.71;102841.06;5036347;28;46421;-57
2021/12/15 01:09:48;;;;;;;;;39.50;33.25;;;;;11.17;69.38;102835.84;5036541;28;45418;-57
2021/12/15 01:20:46;;;;;;;;;46.25;37.25;;;;;11.13;69.19;102839.47;5031535;28;45402;-58
2021/12/15 01:23:15;;;;;;;;;35.50;31.00;;;;;11.12;69.59;102837.75;5029713;28;45312;-56
2021/12/15 01:25:45;;;;;;;;;44.25;32.00;;;;;11.15;69.15;102836.81;5035321;28;45460;-56
2021/12/15 01:28:12;;;;;;;;;38.25;35.25;;;;;11.16;69.34;102833.25;5032016;28;45421;-57
2021/12/15 01:30:42;;;;;;;;;44.50;35.50;;;;;11.18;69.04;102834.06;5033834;28;45341;-59
2021/12/15 01:33:08;;;;;;;;;37.50;31.25;;;;;11.17;69.20;102833.22;5033010;28;45403;-58
2021/12/15 01:35:35;;;;;;;;;45.25;35.25;;;;;11.18;68.76;102839.34;5031930;28;45390;-58
2021/12/15 01:38:01;;;;;;;;;42.50;32.25;;;;;11.16;69.20;102831.47;5031533;28;45390;-56
2021/12/15 01:40:40;;;;;;;;;15.50;8.50;;;;;11.16;69.42;102835.91;5033583;28;45335;-59
2021/12/15 01:43:17;;;;;;;;;44.00;33.75;;;;;11.17;69.21;102833.22;5033008;28;45414;-58
2021/12/15 01:48:32;;;;;;;;;40.00;34.75;;;;;11.18;68.89;102837.56;5027985;28;45834;-58
2021/12/15 01:50:58;;;;;;;;;46.00;34.50;;;;;11.18;69.14;102834.06;5051805;28;45440;-58
2021/12/15 01:53:24;;;;;;;;;44.00;35.50;;;;;11.14;68.78;102841.22;5030935;28;45440;-57
2021/12/15 01:55:49;;;;;;;;;47.00;35.50;;;;;11.12;69.41;102837.75;5031626;28;46085;-56
2021/12/15 01:58:15;;;;;;;;;47.50;34.00;;;;;11.13;68.98;102842.09;5031057;28;45375;-58
2021/12/15 02:00:49;;;;;;;;;54.75;39.25;;;;;11.11;69.36;102841.28;5030571;28;45721;-56
2021/12/15 02:03:15;;;;;;;;;42.50;36.25;;;;;11.11;69.39;102857.13;5029233;28;45378;-58
2021/12/15 02:05:42;;;;;;;;;53.00;39.00;;;;;11.10;69.25;102857.16;5033107;28;45581;-57
2021/12/15 02:08:08;;;;;;;;;50.50;39.75;;;;;11.10;69.41;102857.16;5050206;28;45522;-54
2021/12/15 02:10:37;;;;;;;;;44.00;36.75;;;;;11.11;69.27;102856.25;5035773;28;45320;-56
2021/12/15 02:13:07;;;;;;;;;44.00;33.75;;;;;11.09;69.40;102856.28;5032508;28;45352;-52
2021/12/15 02:15:37;;;;;;;;;49.75;37.00;;;;;11.08;69.27;102862.47;5028348;28;45478;-56
2021/12/15 02:18:06;;;;;;;;;36.00;30.50;;;;;11.06;69.54;102864.31;5034605;28;46147;-58
2021/12/15 02:20:36;;;;;;;;;50.50;38.75;;;;;11.09;69.67;102871.25;5031821;28;45767;-54
2021/12/15 02:23:04;;;;;;;;;50.75;36.00;;;;;11.10;69.40;102868.56;5025270;28;45702;-54
2021/12/15 02:25:29;;;;;;;;;45.25;36.25;;;;;11.10;69.53;102867.72;5026579;28;45529;-54
2021/12/15 02:27:55;;;;;;;;;48.25;35.50;;;;;11.11;69.71;102866.81;5029120;28;46049;-55
2021/12/15 02:30:47;;;;;;;;;40.50;35.00;;;;;11.12;69.46;102872.03;5030697;28;45711;-53
2021/12/15 02:38:41;;;;;;;;;44.75;35.25;;;;;11.09;69.31;102865.97;5025975;28;45383;-50
2021/12/15 02:41:14;;;;;;;;;43.25;34.25;;;;;11.10;69.36;102862.44;5028733;28;45661;-55
2021/12/15 02:43:40;;;;;;;;;42.50;37.00;;;;;11.11;69.45;102866.81;5029420;28;45416;-53
2021/12/15 02:46:07;;;;;;;;;44.75;35.00;;;;;11.12;69.13;102866.75;5029001;28;45608;-53
2021/12/15 02:48:33;;;;;;;;;45.50;37.25;;;;;11.13;69.51;102864.97;5028516;28;46304;-55
2021/12/15 02:50:59;;;;;;;;;43.50;37.25;;;;;11.13;69.60;102860.56;5030733;28;45602;-56
2021/12/15 02:53:25;;;;;;;;;52.50;38.00;;;;;11.13;69.69;102863.19;5028957;28;45816;-55
2021/12/15 02:55:50;;;;;;;;;39.25;35.50;;;;;11.14;69.65;102858.81;5025085;28;45410;-56
2021/12/15 02:58:19;;;;;;;;;48.00;35.50;;;;;11.14;69.26;102853.53;5030532;28;45632;-55
2021/12/15 03:00:57;;;;;;;;;48.50;35.00;;;;;11.11;69.08;102858.88;5029462;28;45525;-55
2021/12/15 03:06:04;;;;;;;;;42.50;35.50;;;;;11.13;69.14;102857.06;5025297;28;45447;-54
2021/12/15 03:09:17;;;;;;;;;44.00;35.75;;;;;11.12;69.44;102856.19;5031246;28;45530;-56
2021/12/15 03:16:55;;;;;;;;;42.00;35.25;;;;;11.10;69.21;102850.09;5025604;28;45691;-54
2021/12/15 03:19:21;;;;;;;;;38.75;32.25;;;;;11.11;69.08;102862.38;5026656;28;45705;-54
2021/12/15 03:21:47;;;;;;;;;40.50;31.75;;;;;11.12;69.13;102858.84;5029425;28;45438;-52
2021/12/15 03:24:19;;;;;;;;;34.00;28.25;;;;;11.12;69.03;102863.25;5029480;28;45782;-54
2021/12/15 03:26:59;;;;;;;;;32.75;29.50;;;;;11.12;69.07;102861.47;5027836;28;45308;-55
2021/12/15 03:35:17;;;;;;;;;38.50;28.75;;;;;11.15;68.73;102863.19;5027214;28;45486;-53
2021/12/15 03:37:47;;;;;;;;;34.75;29.50;;;;;11.15;69.04;102864.03;5028665;28;45455;-55
2021/12/15 03:40:40;;;;;;;;;39.25;30.00;;;;;11.14;68.48;102859.69;5024689;28;45599;-55
2021/12/15 03:43:10;;;;;;;;;37.00;32.50;;;;;11.15;68.93;102865.81;5027413;28;45373;-55
2021/12/15 03:45:44;;;;;;;;;31.25;26.25;;;;;11.15;68.70;102868.47;5029097;28;45489;-54
2021/12/15 03:48:20;;;;;;;;;34.75;27.50;;;;;11.13;68.96;102862.34;5026157;28;45683;-54
2021/12/15 03:50:46;;;;;;;;;32.25;29.25;;;;;11.15;68.82;102871.09;5027648;28;45790;-54
2021/12/15 03:53:13;;;;;;;;;34.75;29.50;;;;;11.13;68.99;102873.75;5026420;28;45711;-54
2021/12/15 03:55:40;;;;;;;;;45.00;33.50;;;;;11.14;68.58;102869.38;5028347;28;45615;-53
2021/12/15 03:58:10;;;;;;;;;62.75;45.25;;;;;11.15;68.84;102871.97;5028234;28;45607;-54
2021/12/15 04:00:40;;;;;;;;;44.25;35.50;;;;;11.15;68.72;102871.97;5024412;28;46264;-55
2021/12/15 04:03:08;;;;;;;;;37.75;32.00;;;;;11.17;68.63;102871.91;5028619;28;45454;-53
2021/12/15 04:05:33;;;;;;;;;37.50;29.50;;;;;11.17;68.55;102870.13;5028079;28;45389;-56
2021/12/15 04:07:59;;;;;;;;;34.50;28.00;;;;;11.17;68.87;102872.78;5027884;28;45346;-54
2021/12/15 04:10:26;;;;;;;;;38.25;30.00;;;;;11.16;68.65;102870.19;5027392;28;45799;-53
2021/12/15 04:12:52;;;;;;;;;28.75;25.00;;;;;11.13;68.26;102860.56;5024063;28;45358;-53
2021/12/15 04:17:48;;;;;;;;;30.25;26.25;;;;;11.13;68.45;102859.69;5028293;28;45514;-54
2021/12/15 04:20:17;;;;;;;;;32.75;25.00;;;;;11.12;68.63;102856.19;5028383;28;45467;-48
2021/12/15 04:22:44;;;;;;;;;39.75;31.00;;;;;11.13;68.41;102860.56;5026333;28;45633;-54
2021/12/15 04:25:13;;;;;;;;;32.00;27.25;;;;;11.14;68.49;102853.53;5026656;28;45404;-51
2021/12/15 04:27:40;;;;;;;;;28.75;25.75;;;;;11.15;68.31;102858.78;5029441;28;45578;-52
2021/12/15 04:30:09;;;;;;;;;29.50;25.50;;;;;11.15;68.46;102863.19;5026839;28;46306;-53
2021/12/15 04:32:40;;;;;;;;;33.25;25.00;;;;;11.15;68.37;102856.13;5022505;28;45398;-49
2021/12/15 04:35:07;;;;;;;;;32.75;27.75;;;;;11.15;68.32;102864.03;5026819;28;45866;-53
2021/12/15 04:37:33;;;;;;;;;31.00;20.75;;;;;11.17;68.02;102864.00;5021537;28;45663;-50
2021/12/15 04:39:58;;;;;;;;;28.75;20.75;;;;;11.15;67.97;102864.03;5028853;28;45512;-55
2021/12/15 04:42:26;;;;;;;;;27.25;25.50;;;;;11.16;68.26;102864.91;5026632;28;45522;-55
2021/12/15 04:44:56;;;;;;;;;25.75;23.75;;;;;11.16;67.96;102868.41;5027264;28;45668;-52
2021/12/15 04:47:23;;;;;;;;;29.50;23.25;;;;;11.15;67.79;102869.31;5026213;28;45527;-55
2021/12/15 04:49:51;;;;;;;;;30.25;23.00;;;;;11.15;67.79;102866.69;5028418;28;45775;-53
2021/12/15 04:52:20;;;;;;;;;33.50;26.00;;;;;11.16;67.71;102873.69;5027388;28;45344;-54
2021/12/15 04:54:46;;;;;;;;;32.25;24.50;;;;;11.17;67.86;102872.78;5027406;28;45556;-54
2021/12/15 04:57:14;;;;;;;;;26.00;17.50;;;;;11.17;67.79;102880.69;5024986;28;45735;-54
2021/12/15 04:59:40;;;;;;;;;25.75;24.50;;;;;11.19;67.54;102876.22;5026748;28;45450;-54
2021/12/15 05:02:07;;;;;;;;;27.50;23.00;;;;;11.21;67.57;102876.19;5027942;28;45569;-55
2021/12/15 05:04:33;;;;;;;;;27.00;22.50;;;;;11.21;67.69;102881.44;5027668;28;45382;-54
2021/12/15 05:06:59;;;;;;;;;30.00;23.00;;;;;11.22;67.55;102888.50;5026511;28;45310;-53
2021/12/15 05:09:25;;;;;;;;;21.25;18.00;;;;;11.22;67.64;102883.22;5026620;28;45877;-54
2021/12/15 05:11:51;;;;;;;;;22.75;20.75;;;;;11.22;67.32;102883.22;5028303;28;45772;-55
2021/12/15 05:14:18;;;;;;;;;24.00;17.75;;;;;11.22;67.59;102891.13;5027798;28;45426;-53
2021/12/15 05:16:45;;;;;;;;;27.00;20.25;;;;;11.21;67.21;102891.16;5027376;28;45376;-52
2021/12/15 05:19:11;;;;;;;;;30.50;26.25;;;;;11.19;67.13;102888.56;5026372;28;45678;-54
2021/12/15 05:21:36;;;;;;;;;24.00;18.75;;;;;11.19;67.27;102888.56;5024814;28;45278;-55
2021/12/15 05:24:12;;;;;;;;;24.75;20.75;;;;;11.20;67.36;102900.84;5027716;28;45389;-54
2021/12/15 05:26:38;;;;;;;;;22.50;21.00;;;;;11.19;67.05;102899.09;5031145;28;45484;-54
2021/12/15 05:29:03;;;;;;;;;24.50;22.50;;;;;11.18;67.37;102897.38;5031125;28;46070;-54
2021/12/15 05:31:29;;;;;;;;;24.50;23.75;;;;;11.18;67.19;102906.16;5031801;28;45431;-54
2021/12/15 05:33:55;;;;;;;;;22.75;21.00;;;;;11.18;67.37;102905.28;5030491;28;45428;-54
2021/12/15 05:36:20;;;;;;;;;24.00;18.50;;;;;11.19;67.14;102901.75;5029586;28;45407;-53
2021/12/15 05:38:46;;;;;;;;;23.50;19.00;;;;;11.21;66.87;102909.59;5030956;28;45834;-51
2021/12/15 05:41:11;;;;;;;;;22.75;20.00;;;;;11.22;67.23;102908.69;5031496;28;45439;-51
2021/12/15 05:43:37;;;;;;;;;29.50;23.75;;;;;11.22;67.05;102906.06;5029708;28;45417;-53
2021/12/15 05:46:02;;;;;;;;;24.50;21.25;;;;;11.21;67.21;102907.84;5044318;28;45479;-51
2021/12/15 05:48:28;;;;;;;;;23.50;21.00;;;;;11.22;67.08;102908.69;5030845;28;45951;-53
2021/12/15 05:50:54;;;;;;;;;31.75;22.00;;;;;11.23;66.83;102915.72;5028273;28;45534;-50
2021/12/15 05:53:22;;;;;;;;;29.00;22.00;;;;;11.21;66.73;102918.38;5029725;28;45421;-53
2021/12/15 05:55:48;;;;;;;;;29.75;24.75;;;;;11.21;67.00;102918.38;5029409;28;45379;-54
2021/12/15 05:58:14;;;;;;;;;21.50;21.00;;;;;11.19;67.19;102920.22;5026346;28;46102;-54
2021/12/15 06:00:42;;;;;;;;;28.00;23.25;;;;;11.18;66.80;102919.34;5030934;28;45501;-53
2021/12/15 06:03:08;;;;;;;;;22.25;21.75;;;;;11.18;67.02;102922.00;5030506;28;45455;-54
2021/12/15 06:05:36;;;;;;;;;24.00;19.00;;;;;11.18;66.90;102922.00;5028262;28;45466;-54
2021/12/15 06:08:02;;;;;;;;;22.50;20.50;;;;;11.18;67.01;102922.00;5029330;28;46095;-54
2021/12/15 06:10:29;;;;;;;;;23.00;20.50;;;;;11.16;67.00;102928.22;5028417;28;45441;-53
2021/12/15 06:12:56;;;;;;;;;21.50;19.50;;;;;11.16;67.08;102930.84;5026150;28;45378;-53
2021/12/15 06:15:25;;;;;;;;;22.75;21.50;;;;;11.16;66.74;102937.00;5029897;28;45492;-50
2021/12/15 06:17:57;;;;;;;;;22.75;20.75;;;;;11.17;66.69;102941.38;5030936;28;45408;-54
2021/12/15 06:20:24;;;;;;;;;26.00;21.00;;;;;11.15;66.81;102937.91;5026963;28;45580;-54
2021/12/15 06:22:52;;;;;;;;;20.75;16.50;;;;;11.16;66.70;102951.97;5030299;28;45380;-50
2021/12/15 06:25:18;;;;;;;;;26.75;22.00;;;;;11.15;67.08;102945.81;5030777;28;45560;-51
2021/12/15 06:27:43;;;;;;;;;26.25;20.25;;;;;11.16;66.92;102949.31;5029264;28;46207;-54
2021/12/15 06:30:09;;;;;;;;;25.75;18.00;;;;;11.14;66.89;102948.50;5028603;28;45402;-51
2021/12/15 06:32:35;;;;;;;;;43.25;28.50;;;;;11.10;66.65;102952.97;5028880;28;45368;-54
2021/12/15 06:35:01;;;;;;;;;25.25;18.00;;;;;11.10;66.72;102949.47;5030873;28;45526;-54
2021/12/15 06:37:27;;;;;;;;;21.50;18.50;;;;;11.08;66.75;102949.53;5029947;28;45490;-49
2021/12/15 06:39:52;;;;;;;;;21.00;16.50;;;;;11.08;66.73;102953.94;5029434;28;45661;-50
2021/12/15 06:42:18;;;;;;;;;25.25;19.00;;;;;11.11;66.81;102961.75;5028847;28;45445;-54
2021/12/15 06:44:44;;;;;;;;;26.00;20.50;;;;;11.10;66.79;102952.97;5028174;28;45710;-50
2021/12/15 07:00:31;;;;;;;;;21.50;16.75;;;;;11.14;66.90;102970.47;5030950;28;45451;-54
2021/12/15 07:02:59;;;;;;;;;30.75;21.00;;;;;11.14;66.74;102965.19;5026697;28;45430;-55
2021/12/15 07:05:25;;;;;;;;;24.00;19.75;;;;;11.15;66.84;102966.06;5029085;28;45343;-56
2021/12/15 07:07:53;;;;;;;;;16.00;13.00;;;;;11.13;66.67;102971.34;5028494;28;45323;-54
2021/12/15 07:10:23;;;;;;;;;20.50;15.00;;;;;11.13;66.66;102970.47;5027281;28;45459;-53
2021/12/15 07:12:49;;;;;;;;;19.75;19.00;;;;;11.15;66.95;102974.84;5028237;28;45507;-53
2021/12/15 07:15:16;;;;;;;;;19.75;17.25;;;;;11.15;66.99;102979.25;5027126;28;45723;-53
2021/12/15 07:17:44;;;;;;;;;23.50;20.50;;;;;11.15;66.91;102979.25;5029122;28;45433;-54
2021/12/15 07:23:18;;;;;;;;;17.25;15.25;;;;;11.15;67.01;102993.31;5010139;28;45523;-54
2021/12/15 07:25:46;;;;;;;;;20.50;17.25;;;;;11.15;66.98;102990.66;5007062;28;45544;-53
2021/12/15 07:28:13;;;;;;;;;16.50;16.50;;;;;11.16;66.99;102992.41;5018594;28;45470;-54
2021/12/15 07:30:40;;;;;;;;;18.25;14.25;;;;;11.14;66.93;102999.50;5027985;28;45802;-54
2021/12/15 07:33:08;;;;;;;;;22.50;14.25;;;;;11.15;66.98;103000.34;5027224;28;45510;-54
2021/12/15 07:35:36;;;;;;;;;18.00;16.50;;;;;11.14;67.13;102996.00;5027530;28;45597;-54
2021/12/15 07:38:02;;;;;;;;;20.50;18.50;;;;;11.14;66.93;102996.00;5030210;28;45367;-54
2021/12/15 07:40:28;;;;;;;;;21.00;16.00;;;;;11.15;67.23;103006.50;5027920;28;45581;-54
2021/12/15 07:43:06;;;;;;;;;17.25;14.50;;;;;11.14;67.26;103007.41;5028805;28;45448;-54
2021/12/15 07:45:53;;;;;;;;;14.25;13.00;;;;;11.14;66.92;103009.19;5027147;28;45546;-55
2021/12/15 07:48:23;;;;;;;;;19.25;15.25;;;;;11.14;67.04;103011.81;5028147;28;46064;-54
2021/12/15 07:50:52;;;;;;;;;16.75;16.50;;;;;11.13;67.23;103012.69;5028562;28;45641;-55
2021/12/15 07:53:18;;;;;;;;;22.00;15.75;;;;;11.11;67.36;103018.00;5025884;28;45620;-54
2021/12/15 07:55:45;;;;;;;;;17.75;14.00;;;;;11.11;67.86;103012.72;5028860;28;45463;-53
2021/12/15 07:58:11;;;;;;;;;27.50;21.00;;;;;11.13;67.55;103015.31;5027449;28;45768;-52
2021/12/15 08:00:40;;;;;;;;;23.50;20.75;;;;;11.14;67.36;103017.09;5026494;28;45379;-54
2021/12/15 08:03:07;;;;;;;;;21.00;15.75;;;;;11.16;67.47;103018.78;5028325;28;45648;-55
2021/12/15 08:05:33;;;;;;;;;22.75;18.00;;;;;11.19;67.21;103015.19;5029024;28;45474;-52
2021/12/15 08:07:59;;;;;;;;;23.25;19.00;;;;;11.21;67.32;103021.28;5027257;28;45629;-52
2021/12/15 08:10:25;;;;;;;;;24.00;21.00;;;;;11.22;67.78;103027.41;5026438;28;45623;-53
2021/12/15 08:12:51;;;;;;;;;19.75;16.00;;;;;11.22;67.66;103022.13;5027268;28;45870;-54
2021/12/15 08:15:17;;;;;;;;;20.75;17.50;;;;;11.23;67.62;103023.91;5026285;28;45575;-50
2021/12/15 08:17:48;;;;;;;;;22.25;18.25;;;;;11.26;67.50;103022.03;5028334;28;46052;-52
2021/12/15 08:20:14;;;;;;;;;18.00;16.75;;;;;11.27;67.70;103031.69;5025414;28;45800;-52
2021/12/15 08:22:40;;;;;;;;;24.25;21.50;;;;;11.29;67.47;103031.63;5026891;28;45493;-54
2021/12/15 08:25:09;;;;;;;;;18.75;12.00;;;;;11.32;67.67;103032.44;5028243;28;45455;-52
2021/12/15 08:27:35;;;;;;;;;15.75;14.00;;;;;11.33;67.43;103028.91;5028368;28;45470;-51
2021/12/15 08:30:00;;;;;;;;;22.75;16.00;;;;;11.34;67.71;103032.41;5018520;28;47902;-49
2021/12/15 08:32:26;;;;;;;;;20.25;16.25;;;;;11.34;67.68;103035.03;5026731;28;45546;-51
2021/12/15 08:34:51;;;;;;;;;16.75;14.00;;;;;11.34;67.71;103032.41;5025326;28;45497;-49
2021/12/15 08:37:17;;;;;;;;;25.00;17.00;;;;;11.33;67.47;103034.16;5019400;28;46132;-54
2021/12/15 08:39:45;;;;;;;;;18.50;14.00;;;;;11.31;67.75;103030.72;5024535;28;45301;-52
2021/12/15 08:42:11;;;;;;;;;20.75;17.25;;;;;11.31;67.53;103036.00;5022888;28;45358;-50
2021/12/15 08:44:37;;;;;;;;;15.00;15.00;;;;;11.31;67.98;103036.00;5024781;28;45267;-55
2021/12/15 08:47:04;;;;;;;;;20.75;17.00;;;;;11.30;67.96;103033.41;5023109;28;45950;-55
2021/12/15 08:49:30;;;;;;;;;25.25;16.00;;;;;11.30;67.78;103028.97;5027120;28;45523;-55
2021/12/15 08:51:56;;;;;;;;;27.50;18.25;;;;;11.33;68.31;103030.66;5025868;28;45405;-55
2021/12/15 08:54:23;;;;;;;;;19.50;16.75;;;;;11.32;67.85;103028.94;5023289;28;45495;-57
2021/12/15 08:56:51;;;;;;;;;20.00;15.00;;;;;11.33;67.68;103031.53;5031148;28;46518;-51
2021/12/15 08:59:18;;;;;;;;;14.50;14.50;;;;;11.32;68.04;103035.09;5031559;28;45320;-53
2021/12/15 09:01:44;;;;;;;;;22.25;17.00;;;;;11.38;68.13;103039.34;5029200;28;45408;-52
2021/12/15 09:04:11;;;;;;;;;17.75;14.50;;;;;11.39;68.45;103036.66;5025877;28;45318;-55
2021/12/15 09:06:39;;;;;;;;;21.75;17.25;;;;;11.42;68.29;103036.56;5034134;28;45415;-54
2021/12/15 09:09:09;;;;;;;;;25.75;20.00;;;;;11.45;67.64;103044.41;5033642;28;45343;-53
2021/12/15 09:11:35;;;;;;;;;17.25;15.00;;;;;11.46;67.85;103048.78;5028940;28;45287;-55
2021/12/15 09:14:03;;;;;;;;;17.50;16.00;;;;;11.48;67.67;103046.09;5029533;28;45241;-54
2021/12/15 09:16:31;;;;;;;;;24.75;19.50;;;;;11.49;67.63;103047.84;5033802;28;46564;-55
2021/12/15 09:18:58;;;;;;;;;24.50;21.00;;;;;11.51;67.88;103048.66;5030222;28;45430;-53
2021/12/15 09:21:27;;;;;;;;;17.25;16.75;;;;;11.52;67.78;103050.38;5030214;28;45795;-52
2021/12/15 09:23:53;;;;;;;;;21.75;16.75;;;;;11.56;68.03;103056.47;5028969;28;45372;-54
2021/12/15 09:26:20;;;;;;;;;21.25;17.25;;;;;11.57;67.42;103052.91;5032776;28;46506;-55
2021/12/15 09:28:47;;;;;;;;;24.25;20.00;;;;;11.61;67.79;103057.19;5025791;28;45307;-52
2021/12/15 09:31:15;;;;;;;;;22.25;20.25;;;;;11.64;67.63;103054.47;5010762;28;45305;-54
2021/12/15 09:33:43;;;;;;;;;19.75;14.75;;;;;11.64;67.55;103059.75;5023477;28;45419;-53
2021/12/15 09:36:12;;;;;;;;;23.25;19.25;;;;;11.65;67.59;103054.44;5023315;28;46036;-57
2021/12/15 09:38:39;;;;;;;;;19.50;16.25;;;;;11.68;67.65;103061.41;5022809;28;45505;-53
2021/12/15 09:41:07;;;;;;;;;21.25;17.00;;;;;11.71;67.39;103058.69;5031937;28;45301;-55
2021/12/15 09:43:34;;;;;;;;;19.50;18.50;;;;;11.74;67.24;103064.75;5021535;28;45446;-48
2021/12/15 09:46:26;;;;;;;;;20.25;18.75;;;;;11.77;67.56;103060.28;5022966;28;45419;-49
2021/12/15 10:02:36;;;;;;;;;22.25;18.25;;;;;11.91;67.40;103052.88;5023067;28;45412;-52
2021/12/15 10:18:51;;;;;;;;;19.25;16.00;;;;;11.96;67.45;103057.13;5021509;28;45627;-53
2021/12/15 10:21:32;;;;;;;;;19.75;15.50;;;;;12.00;67.56;103068.47;5021959;28;45381;-53
2021/12/15 10:23:58;;;;;;;;;20.50;16.25;;;;;12.02;67.48;103061.41;5022532;28;45395;-58
2021/12/15 10:26:24;;;;;;;;;23.00;20.50;;;;;12.04;67.13;103061.34;5022434;28;45466;-53
2021/12/15 10:28:52;;;;;;;;;19.00;16.00;;;;;12.06;67.23;103060.38;5015605;28;45380;-56
2021/12/15 10:31:22;;;;;;;;;22.50;16.25;;;;;12.07;67.26;103063.88;5020641;28;45376;-53
2021/12/15 10:33:58;;;;;;;;;19.50;14.00;;;;;12.07;66.91;103058.59;5018770;28;45546;-54
2021/12/15 10:36:32;;;;;;;;;20.50;14.50;;;;;12.05;67.04;103063.06;5021804;28;45219;-54
2021/12/15 10:39:02;;;;;;;;;21.00;16.75;;;;;12.04;67.05;103062.22;5021935;28;45310;-49
2021/12/15 10:41:32;;;;;;;;;27.50;20.25;;;;;12.06;67.06;103062.16;5015457;28;45178;-54
2021/12/15 10:44:07;;;;;;;;;18.50;16.25;;;;;12.06;67.45;103062.16;5017658;28;45486;-53
2021/12/15 10:46:43;;;;;;;;;19.75;17.00;;;;;12.08;67.09;103055.91;5021294;28;45471;-52
2021/12/15 10:49:12;;;;;;;;;22.25;16.25;;;;;12.10;66.91;103061.19;5021855;28;45352;-57
2021/12/15 10:51:42;;;;;;;;;17.50;15.25;;;;;12.11;67.06;103061.13;5021648;28;45242;-55
2021/12/15 10:54:17;;;;;;;;;20.75;17.75;;;;;12.12;66.62;103060.22;5020906;28;45325;-55
2021/12/15 10:57:03;;;;;;;;;17.50;15.00;;;;;12.16;66.91;103058.34;5021483;28;45441;-55
2021/12/15 10:59:33;;;;;;;;;16.00;14.75;;;;;12.16;66.64;103053.91;5021694;28;45432;-58
2021/12/15 11:02:07;;;;;;;;;21.50;17.00;;;;;12.19;66.58;103058.28;5021323;28;45296;-55
2021/12/15 11:04:44;;;;;;;;;19.25;12.25;;;;;12.21;66.74;103054.66;5021749;28;45371;-55
2021/12/15 11:07:09;;;;;;;;;18.25;15.75;;;;;12.23;66.79;103063.41;5021820;28;45169;-53
2021/12/15 11:09:42;;;;;;;;;16.25;14.00;;;;;12.25;66.67;103055.47;5021516;28;46034;-56
2021/12/15 11:12:57;;;;;;;;;16.25;14.00;;;;;12.23;66.36;103046.69;5021799;28;45327;-59
2021/12/15 11:15:27;;;;;;;;;15.50;15.00;;;;;12.18;66.38;103051.25;5009060;28;45242;-66
2021/12/15 11:17:59;;;;;;;;;16.50;15.00;;;;;12.15;66.71;103046.91;5021419;28;45558;-60
2021/12/15 11:20:34;;;;;;;;;18.00;15.25;;;;;12.15;66.60;103046.03;5021486;28;46173;-61
2021/12/15 11:23:04;;;;;;;;;20.00;15.00;;;;;12.19;66.74;103047.69;5019665;28;45311;-61
2021/12/15 11:25:48;;;;;;;;;21.50;17.00;;;;;12.19;66.47;103045.91;5021157;28;45426;-59
2021/12/15 11:28:16;;;;;;;;;19.50;15.25;;;;;12.19;66.66;103039.78;5010128;28;45392;-59
2021/12/15 11:30:50;;;;;;;;;17.50;15.00;;;;;12.23;66.52;103039.63;5021256;28;45378;-59
2021/12/15 11:33:23;;;;;;;;;17.50;14.25;;;;;12.28;66.34;103037.72;5019763;28;45237;-71
2021/12/15 11:36:03;;;;;;;;;23.00;15.75;;;;;12.33;66.35;103036.72;5021282;28;45434;-62
2021/12/15 11:38:33;;;;;;;;;18.75;16.00;;;;;12.36;66.32;103036.63;5017487;28;46113;-62
2021/12/15 11:41:06;;;;;;;;;20.25;17.00;;;;;12.39;66.31;103031.22;5017714;28;45429;-62
2021/12/15 11:43:31;;;;;;;;;15.75;14.50;;;;;12.37;65.67;103027.78;5018819;28;45764;-61
2021/12/15 11:45:59;;;;;;;;;11.50;11.50;;;;;12.34;65.84;103028.75;5019618;28;45676;-65
2021/12/15 11:48:28;;;;;;;;;10.75;10.00;;;;;12.35;65.81;103033.13;5024663;28;44949;-68
2021/12/15 11:50:59;;;;;;;;;7.75;7.50;;;;;12.38;65.70;103032.16;5019320;28;45439;-72
2021/12/15 11:53:46;;;;;;;;;11.00;9.00;;;;;12.41;65.59;103032.09;5019944;28;45470;-68
2021/12/15 11:56:20;;;;;;;;;10.25;9.50;;;;;12.40;65.59;103031.22;5022345;28;45396;-66
2021/12/15 11:58:48;;;;;;;;;15.75;13.00;;;;;12.40;65.58;103020.66;5019547;28;45566;-62
2021/12/15 12:01:45;;;;;;;;;10.50;9.00;;;;;12.42;65.33;103028.53;5020675;28;45371;-65
2021/12/15 12:04:27;;;;;;;;;13.25;10.75;;;;;12.45;65.56;103025.78;5020830;28;45386;-65
2021/12/15 12:07:18;;;;;;;;;12.50;10.50;;;;;12.46;65.64;103022.22;5020643;28;45242;-68
2021/12/15 12:09:47;;;;;;;;;10.25;7.00;;;;;12.45;65.23;103031.06;5016492;28;45742;-64
2021/12/15 12:12:16;;;;;;;;;15.00;9.50;;;;;12.45;65.27;103023.13;5019724;28;45333;-64
2021/12/15 12:14:48;;;;;;;;;12.25;10.25;;;;;12.46;65.41;103025.72;5020883;28;45335;-64
2021/12/15 12:17:18;;;;;;;;;17.50;9.25;;;;;12.48;65.55;103013.34;5020241;28;45388;-64
2021/12/15 12:19:53;;;;;;;;;13.25;10.25;;;;;12.54;65.23;103017.56;5020976;28;45458;-65
2021/12/15 12:22:21;;;;;;;;;12.25;11.75;;;;;12.56;65.32;103010.47;5020197;28;46142;-61
2021/12/15 12:24:50;;;;;;;;;8.75;5.25;;;;;12.60;64.72;103014.72;5020375;28;45262;-63
2021/12/15 12:27:16;;;;;;;;;4.75;4.75;;;;;12.62;64.39;103009.38;5020443;28;45511;-62
2021/12/15 12:29:44;;;;;;;;;6.25;5.50;;;;;12.62;64.57;103014.66;5019534;28;45331;-62
2021/12/15 12:32:11;;;;;;;;;2.25;2.25;;;;;12.62;64.22;103010.25;5019661;28;45388;-62
2021/12/15 12:34:39;;;;;;;;;7.25;5.50;;;;;12.59;64.10;103007.72;5019035;28;45405;-63